Time;durP1;ratioP1;P1;durP2;ratioP2;P2;SDS_P1;SDS_P2;PMS_P1;PMS_P2;Temp;Humidity;BMP_temperature;BMP_pressure;BME280_temperature;BME280_humidity;BME280_pressure;Samples;Min_cycle;Max_cycle;Signal;HPM_P1;HPM_P2
2023/03/17 00:01:23;;;;;;;13.50;2.97;;;10.00;99.90;;;;;;5113820;28;20051;-75
2023/03/17 00:03:49;;;;;;;17.90;4.00;;;9.90;99.90;;;;;;5114389;28;20132;-74
2023/03/17 00:06:26;;;;;;;17.35;4.15;;;9.90;99.90;;;;;;5114132;28;20508;-74
2023/03/17 00:08:52;;;;;;;15.45;4.07;;;9.80;99.90;;;;;;5114326;28;20028;-75
2023/03/17 00:11:18;;;;;;;23.65;4.80;;;9.70;99.90;;;;;;5114219;28;20027;-74
2023/03/17 00:13:45;;;;;;;21.58;3.92;;;9.70;99.90;;;;;;5113956;28;20024;-75
2023/03/17 00:16:27;;;;;;;21.42;4.25;;;9.70;99.90;;;;;;5114081;28;20126;-74
2023/03/17 00:18:54;;;;;;;18.83;3.72;;;9.60;99.90;;;;;;5113928;27;20020;-75
2023/03/17 00:21:26;;;;;;;19.38;3.83;;;9.50;99.90;;;;;;5114052;27;20024;-78
2023/03/17 00:23:53;;;;;;;14.60;4.63;;;9.50;99.90;;;;;;5113964;28;20028;-75
2023/03/17 00:26:19;;;;;;;17.77;3.72;;;9.50;99.90;;;;;;5113503;28;20047;-75
2023/03/17 00:28:46;;;;;;;16.27;3.38;;;9.50;99.90;;;;;;5112872;27;20035;-74
2023/03/17 00:31:16;;;;;;;19.35;4.85;;;9.40;99.90;;;;;;5113544;28;20054;-74
2023/03/17 00:33:45;;;;;;;15.43;3.85;;;9.40;99.90;;;;;;5113284;28;20104;-74
2023/03/17 00:36:20;;;;;;;17.50;4.18;;;9.30;99.90;;;;;;5113686;28;20024;-74
2023/03/17 00:38:46;;;;;;;24.27;4.70;;;9.20;99.90;;;;;;5112792;28;20020;-75
2023/03/17 00:41:12;;;;;;;19.45;4.95;;;9.10;99.90;;;;;;5113493;28;20031;-73
2023/03/17 00:43:39;;;;;;;16.92;4.10;;;9.10;99.90;;;;;;5112960;28;20023;-74
2023/03/17 00:46:13;;;;;;;21.17;4.55;;;9.00;99.90;;;;;;5113240;28;20024;-74
2023/03/17 00:48:43;;;;;;;22.88;3.80;;;9.00;99.90;;;;;;5112932;28;20034;-74
2023/03/17 00:51:09;;;;;;;22.27;4.35;;;9.00;99.90;;;;;;5112177;28;20118;-75
2023/03/17 00:53:35;;;;;;;16.73;3.58;;;8.90;99.90;;;;;;5113087;28;20111;-75
2023/03/17 00:56:01;;;;;;;18.92;4.90;;;8.90;99.90;;;;;;5113663;28;20047;-75
2023/03/17 00:58:28;;;;;;;24.83;5.00;;;8.90;99.90;;;;;;5113150;27;20418;-75
2023/03/17 01:00:55;;;;;;;17.80;3.97;;;8.80;99.90;;;;;;5113707;28;20397;-75
2023/03/17 01:03:21;;;;;;;22.45;4.15;;;8.80;99.90;;;;;;5113454;28;20024;-75
2023/03/17 01:05:48;;;;;;;22.10;3.70;;;8.80;99.90;;;;;;5112253;28;20031;-76
2023/03/17 01:08:15;;;;;;;14.30;3.55;;;8.80;99.90;;;;;;5112733;27;20439;-75
2023/03/17 01:10:42;;;;;;;15.57;4.07;;;8.90;99.90;;;;;;5112464;28;20055;-76
2023/03/17 01:13:11;;;;;;;16.08;3.90;;;8.90;99.90;;;;;;5112712;28;20308;-75
2023/03/17 01:15:41;;;;;;;20.52;4.82;;;8.90;99.90;;;;;;5112427;28;20473;-75
2023/03/17 01:18:11;;;;;;;14.85;4.20;;;8.80;99.90;;;;;;5113291;28;20024;-75
2023/03/17 01:20:37;;;;;;;15.45;4.32;;;8.80;99.90;;;;;;5111987;28;20435;-75
2023/03/17 01:23:03;;;;;;;27.35;5.18;;;8.80;99.90;;;;;;5113000;28;20028;-76
2023/03/17 01:25:30;;;;;;;22.67;6.15;;;8.80;99.90;;;;;;5112284;28;20023;-77
2023/03/17 01:27:57;;;;;;;25.48;4.30;;;8.80;99.90;;;;;;5104358;28;20052;-75
2023/03/17 01:30:28;;;;;;;18.27;3.78;;;8.80;99.90;;;;;;5091994;28;20024;-75
2023/03/17 01:32:55;;;;;;;22.63;3.30;;;8.80;99.90;;;;;;5092318;28;20089;-75
2023/03/17 01:35:23;;;;;;;22.70;3.97;;;9.00;99.90;;;;;;5092125;28;20020;-76
2023/03/17 01:37:49;;;;;;;27.67;4.72;;;9.10;99.90;;;;;;5091594;28;20102;-75
2023/03/17 01:40:28;;;;;;;20.42;3.45;;;9.50;99.90;;;;;;5091583;28;20040;-75
2023/03/17 01:43:15;;;;;;;17.10;3.33;;;9.80;99.90;;;;;;5092067;28;20028;-75
2023/03/17 01:46:19;;;;;;;15.95;3.05;;;9.90;99.90;;;;;;5091405;28;20020;-75
2023/03/17 01:48:45;;;;;;;14.88;3.38;;;10.00;99.90;;;;;;5091050;28;20226;-75
2023/03/17 01:51:17;;;;;;;22.48;3.15;;;10.20;99.90;;;;;;5091915;28;20200;-75
2023/03/17 01:53:47;;;;;;;15.40;3.13;;;10.30;99.90;;;;;;5091000;28;20359;-74
2023/03/17 01:56:14;;;;;;;11.88;2.50;;;10.40;99.90;;;;;;5091660;28;20028;-74
2023/03/17 01:58:40;;;;;;;11.77;2.85;;;10.50;99.90;;;;;;5091002;28;20100;-74
2023/03/17 02:01:06;;;;;;;14.63;3.95;;;10.50;99.90;;;;;;5091434;28;20038;-75
2023/03/17 02:03:33;;;;;;;13.70;2.88;;;10.50;99.90;;;;;;5090783;28;20043;-75
2023/03/17 02:05:59;;;;;;;16.50;2.53;;;10.40;99.90;;;;;;5091374;28;20039;-74
2023/03/17 02:08:25;;;;;;;15.82;3.00;;;10.40;99.90;;;;;;5090857;28;20032;-74
2023/03/17 02:10:51;;;;;;;17.20;3.45;;;10.40;99.90;;;;;;5090767;28;20110;-75
2023/03/17 02:13:17;;;;;;;16.40;3.00;;;10.30;99.90;;;;;;5091314;28;20458;-75
2023/03/17 02:15:48;;;;;;;12.35;2.58;;;10.40;99.90;;;;;;5089058;28;20043;-76
2023/03/17 02:18:16;;;;;;;16.15;3.20;;;10.40;99.90;;;;;;5090816;28;20467;-75
2023/03/17 02:20:45;;;;;;;18.80;3.13;;;10.50;99.90;;;;;;5090485;28;20042;-75
2023/03/17 02:23:15;;;;;;;17.60;3.03;;;10.50;99.90;;;;;;5091355;28;20028;-75
2023/03/17 02:25:44;;;;;;;12.82;2.30;;;10.60;99.90;;;;;;5090765;28;20051;-74
2023/03/17 02:28:15;;;;;;;13.18;3.03;;;10.60;99.90;;;;;;5091230;28;20219;-75
2023/03/17 02:30:41;;;;;;;12.05;2.30;;;10.60;99.90;;;;;;5090534;28;20020;-75
2023/03/17 02:33:11;;;;;;;10.00;1.92;;;10.60;99.90;;;;;;5091126;28;20122;-75
2023/03/17 02:35:37;;;;;;;14.05;3.10;;;10.60;99.90;;;;;;5090427;28;20435;-76
2023/03/17 02:38:03;;;;;;;8.48;1.90;;;10.50;99.90;;;;;;5091220;28;20085;-76
2023/03/17 02:40:29;;;;;;;10.18;2.00;;;10.50;99.90;;;;;;5090996;28;20031;-75
2023/03/17 02:42:55;;;;;;;13.38;2.10;;;10.50;99.90;;;;;;5090436;28;20035;-75
2023/03/17 02:45:21;;;;;;;13.48;1.90;;;10.50;99.90;;;;;;5090919;28;20540;-75
2023/03/17 02:47:48;;;;;;;8.73;2.53;;;10.50;99.90;;;;;;5090244;28;20024;-75
2023/03/17 02:50:21;;;;;;;10.98;2.33;;;10.50;99.90;;;;;;5090558;28;20081;-75
2023/03/17 02:52:47;;;;;;;13.70;2.72;;;10.50;99.90;;;;;;5090344;28;20085;-75
2023/03/17 02:55:14;;;;;;;10.13;2.38;;;10.50;99.90;;;;;;5090471;28;20428;-75
2023/03/17 02:57:40;;;;;;;10.20;2.40;;;10.40;99.90;;;;;;5090212;28;20032;-75
2023/03/17 03:00:09;;;;;;;14.95;2.58;;;10.40;99.90;;;;;;5090680;28;20036;-75
2023/03/17 03:02:38;;;;;;;15.60;3.33;;;10.40;99.90;;;;;;5090075;28;20036;-75
2023/03/17 03:05:05;;;;;;;13.90;3.00;;;10.40;99.90;;;;;;5090443;28;20021;-74
2023/03/17 03:07:31;;;;;;;12.98;2.70;;;10.30;99.90;;;;;;5090557;28;20020;-74
2023/03/17 03:09:57;;;;;;;11.88;2.58;;;10.20;99.90;;;;;;5090185;28;20074;-75
2023/03/17 03:12:23;;;;;;;16.75;3.42;;;10.10;99.90;;;;;;5090822;28;20046;-74
2023/03/17 03:14:49;;;;;;;12.50;2.22;;;10.00;99.90;;;;;;5090048;28;20103;-75
2023/03/17 03:17:15;;;;;;;13.27;2.40;;;10.00;99.90;;;;;;5090438;28;20064;-74
2023/03/17 03:19:41;;;;;;;16.27;3.47;;;9.90;99.90;;;;;;5090562;28;20119;-74
2023/03/17 03:22:07;;;;;;;18.40;3.70;;;9.90;99.90;;;;;;5094647;28;20439;-74
2023/03/17 03:24:33;;;;;;;11.57;3.22;;;9.90;99.90;;;;;;5094474;28;20335;-75
2023/03/17 03:26:58;;;;;;;13.57;2.88;;;9.90;99.90;;;;;;5092595;28;20040;-74
2023/03/17 03:29:24;;;;;;;15.48;2.63;;;9.80;99.90;;;;;;5094359;28;20104;-75
2023/03/17 03:31:50;;;;;;;12.95;2.97;;;9.80;99.90;;;;;;5094169;28;20114;-74
2023/03/17 03:34:16;;;;;;;19.23;3.08;;;9.80;99.90;;;;;;5094595;28;20027;-74
2023/03/17 03:36:42;;;;;;;16.52;3.30;;;9.70;99.90;;;;;;5094126;28;20053;-74
2023/03/17 03:39:08;;;;;;;20.25;2.88;;;9.70;99.90;;;;;;5094262;28;20032;-75
2023/03/17 03:41:34;;;;;;;17.70;2.95;;;9.70;99.90;;;;;;5094295;28;20046;-78
2023/03/17 03:44:00;;;;;;;17.17;2.90;;;9.70;99.90;;;;;;5094086;28;20051;-75
2023/03/17 03:46:26;;;;;;;18.02;3.47;;;9.80;99.90;;;;;;5094056;28;20067;-75
2023/03/17 03:48:53;;;;;;;17.98;3.08;;;9.80;99.90;;;;;;5092155;28;20111;-75
2023/03/17 03:51:19;;;;;;;16.33;3.30;;;9.80;99.90;;;;;;5092501;28;20555;-74
2023/03/17 03:53:47;;;;;;;13.63;2.80;;;9.90;99.90;;;;;;5093200;28;20494;-75
2023/03/17 03:56:12;;;;;;;15.63;3.10;;;9.90;99.90;;;;;;5094258;28;20355;-75
2023/03/17 03:58:38;;;;;;;18.05;3.42;;;10.00;99.90;;;;;;5093748;28;20032;-76
2023/03/17 04:01:06;;;;;;;14.32;3.65;;;10.00;99.90;;;;;;5093701;28;20035;-75
2023/03/17 04:03:32;;;;;;;17.33;3.13;;;10.00;99.90;;;;;;5093808;28;20297;-75
2023/03/17 04:05:57;;;;;;;12.38;2.85;;;10.00;99.90;;;;;;5093668;28;20081;-75
2023/03/17 04:08:24;;;;;;;12.52;2.75;;;10.00;99.90;;;;;;5093729;28;20478;-75
2023/03/17 04:10:50;;;;;;;15.50;3.25;;;10.10;99.90;;;;;;5092977;28;20415;-75
2023/03/17 04:13:15;;;;;;;24.10;2.92;;;10.10;99.90;;;;;;5093797;28;20039;-75
2023/03/17 04:15:41;;;;;;;22.75;3.75;;;10.10;99.90;;;;;;5092994;28;20047;-76
2023/03/17 04:18:07;;;;;;;16.75;3.65;;;10.10;99.90;;;;;;5093537;28;20451;-75
2023/03/17 04:20:33;;;;;;;17.67;3.58;;;10.10;99.90;;;;;;5093019;28;20393;-75
2023/03/17 04:22:58;;;;;;;14.40;2.97;;;10.10;99.90;;;;;;5092945;28;20020;-76
2023/03/17 04:25:25;;;;;;;17.42;3.90;;;10.10;99.90;;;;;;5093511;28;20455;-76
2023/03/17 04:27:50;;;;;;;21.95;4.82;;;10.10;99.90;;;;;;5092818;28;20056;-74
2023/03/17 04:30:17;;;;;;;16.83;3.42;;;10.10;99.90;;;;;;5091458;28;20051;-75
2023/03/17 04:32:43;;;;;;;19.10;3.05;;;10.10;99.90;;;;;;5092833;28;20038;-75
2023/03/17 04:35:21;;;;;;;19.67;3.53;;;10.10;99.90;;;;;;5093232;28;20097;-75
2023/03/17 04:37:47;;;;;;;19.50;3.95;;;10.10;99.90;;;;;;5092003;28;20474;-75
2023/03/17 04:40:15;;;;;;;13.30;3.33;;;10.00;99.90;;;;;;5092954;28;20385;-75
2023/03/17 04:42:41;;;;;;;23.63;3.58;;;10.00;99.90;;;;;;5092688;28;20496;-77
2023/03/17 04:45:10;;;;;;;17.85;3.55;;;9.90;99.90;;;;;;5093056;28;20095;-75
2023/03/17 04:47:36;;;;;;;21.13;3.80;;;9.90;99.90;;;;;;5092953;28;20097;-74
2023/03/17 04:50:02;;;;;;;19.95;3.85;;;9.90;99.90;;;;;;5092299;28;20078;-74
2023/03/17 04:52:28;;;;;;;19.67;4.45;;;10.00;99.90;;;;;;5091408;28;20115;-74
2023/03/17 04:54:54;;;;;;;14.82;2.90;;;9.90;99.90;;;;;;5092202;28;20024;-74
2023/03/17 04:57:21;;;;;;;18.52;3.08;;;10.00;99.90;;;;;;5093087;28;20092;-75
2023/03/17 04:59:46;;;;;;;18.75;3.47;;;10.00;99.90;;;;;;5092085;28;20028;-76
2023/03/17 05:02:12;;;;;;;16.27;3.10;;;9.90;99.90;;;;;;5092188;28;20047;-76
2023/03/17 05:04:38;;;;;;;17.05;3.33;;;9.90;99.90;;;;;;5092687;28;20051;-74
2023/03/17 05:07:04;;;;;;;18.45;3.22;;;9.90;99.90;;;;;;5091822;28;20355;-73
2023/03/17 05:09:30;;;;;;;13.32;3.70;;;9.90;99.90;;;;;;5092603;28;20031;-74
2023/03/17 05:11:55;;;;;;;21.35;3.45;;;9.90;99.90;;;;;;5091999;28;20035;-75
2023/03/17 05:14:21;;;;;;;20.30;4.18;;;9.80;99.90;;;;;;5092376;28;20024;-74
2023/03/17 05:16:47;;;;;;;21.77;3.15;;;9.80;99.90;;;;;;5091072;28;20020;-74
2023/03/17 05:19:14;;;;;;;17.80;3.25;;;9.80;99.90;;;;;;5092534;28;20272;-74
2023/03/17 05:21:40;;;;;;;16.92;3.22;;;9.90;99.90;;;;;;5092154;28;20507;-74
2023/03/17 05:24:06;;;;;;;14.85;2.70;;;9.90;99.90;;;;;;5091616;28;20078;-75
2023/03/17 05:26:31;;;;;;;19.83;3.72;;;9.90;99.90;;;;;;5091754;28;20079;-74
2023/03/17 05:28:57;;;;;;;16.83;3.00;;;10.00;99.90;;;;;;5091597;28;20028;-73
2023/03/17 05:31:23;;;;;;;20.75;3.10;;;10.10;99.90;;;;;;5092611;28;20422;-75
2023/03/17 05:33:49;;;;;;;20.52;3.58;;;10.10;99.90;;;;;;5091292;28;20032;-73
2023/03/17 05:36:16;;;;;;;16.23;3.33;;;10.10;99.90;;;;;;5091888;28;20466;-75
2023/03/17 05:38:42;;;;;;;15.20;3.08;;;10.10;99.90;;;;;;5092308;28;20048;-75
2023/03/17 05:41:09;;;;;;;14.23;2.67;;;10.20;99.90;;;;;;5091397;28;20032;-74
2023/03/17 05:43:35;;;;;;;19.77;3.40;;;10.20;99.90;;;;;;5091042;28;20028;-74
2023/03/17 05:46:02;;;;;;;23.42;3.78;;;10.20;99.90;;;;;;5091233;28;20095;-74
2023/03/17 05:48:28;;;;;;;14.25;2.85;;;10.30;99.90;;;;;;5091755;28;20027;-74
2023/03/17 05:50:54;;;;;;;19.05;3.53;;;10.30;99.90;;;;;;5089542;28;20028;-74
2023/03/17 05:53:19;;;;;;;13.48;2.88;;;10.30;99.90;;;;;;5091363;28;20111;-75
2023/03/17 05:55:46;;;;;;;21.50;4.13;;;10.30;99.90;;;;;;5091523;28;20027;-78
2023/03/17 05:58:14;;;;;;;25.25;3.88;;;10.30;99.90;;;;;;5091748;28;20063;-74
2023/03/17 06:00:40;;;;;;;16.80;3.25;;;10.30;99.90;;;;;;5091433;28;20071;-74
2023/03/17 06:03:06;;;;;;;20.08;3.97;;;10.30;99.90;;;;;;5090902;28;20039;-74
2023/03/17 06:05:33;;;;;;;17.70;3.25;;;10.30;99.90;;;;;;5091479;28;20028;-74
2023/03/17 06:07:58;;;;;;;16.05;3.30;;;10.40;99.90;;;;;;5090867;28;20056;-74
2023/03/17 06:10:26;;;;;;;16.42;3.75;;;10.40;99.90;;;;;;5091267;28;20039;-74
2023/03/17 06:12:52;;;;;;;18.10;3.17;;;10.30;99.90;;;;;;5089461;28;20050;-74
2023/03/17 06:15:18;;;;;;;17.80;3.60;;;10.30;99.90;;;;;;5091629;28;20047;-74
2023/03/17 06:17:44;;;;;;;24.25;4.18;;;10.30;99.90;;;;;;5091436;28;20028;-74
2023/03/17 06:20:10;;;;;;;23.98;3.65;;;10.30;99.90;;;;;;5091044;28;20036;-74
2023/03/17 06:22:36;;;;;;;22.55;4.20;;;10.30;99.90;;;;;;5091011;28;20480;-75
2023/03/17 06:25:03;;;;;;;20.73;3.17;;;10.30;99.90;;;;;;5090933;28;20119;-75
2023/03/17 06:27:29;;;;;;;17.13;2.75;;;10.30;99.90;;;;;;5091468;28;20101;-74
2023/03/17 06:29:56;;;;;;;22.08;3.40;;;10.30;99.90;;;;;;5092072;28;20097;-75
2023/03/17 06:32:22;;;;;;;15.60;3.20;;;10.30;99.90;;;;;;5092354;28;20035;-75
2023/03/17 06:34:47;;;;;;;17.05;3.05;;;10.30;99.90;;;;;;5091179;28;20024;-79
2023/03/17 06:37:14;;;;;;;20.98;3.22;;;10.30;99.90;;;;;;5091061;28;20025;-75
2023/03/17 06:39:41;;;;;;;20.42;3.00;;;10.30;99.90;;;;;;5091297;28;20088;-74
2023/03/17 06:42:06;;;;;;;18.15;3.33;;;10.40;99.90;;;;;;5090467;28;20112;-75
2023/03/17 06:44:32;;;;;;;14.50;2.53;;;10.40;99.90;;;;;;5091011;28;20106;-75
2023/03/17 06:46:58;;;;;;;15.70;3.15;;;10.40;99.90;;;;;;5090131;28;20118;-75
2023/03/17 06:49:24;;;;;;;15.30;3.17;;;10.40;99.90;;;;;;5090658;28;20497;-75
2023/03/17 06:51:50;;;;;;;12.90;2.88;;;10.50;99.90;;;;;;5089040;28;20028;-79
2023/03/17 06:54:17;;;;;;;18.05;3.10;;;10.50;99.90;;;;;;5089471;28;20080;-75
2023/03/17 06:56:43;;;;;;;16.55;2.78;;;10.50;99.90;;;;;;5091049;28;20096;-75
2023/03/17 06:59:10;;;;;;;12.07;3.08;;;10.50;99.90;;;;;;5089942;28;20607;-75
2023/03/17 07:01:38;;;;;;;16.10;3.45;;;10.60;99.90;;;;;;5089565;28;20416;-75
2023/03/17 07:04:04;;;;;;;18.15;4.10;;;10.60;99.90;;;;;;5089957;28;20474;-75
2023/03/17 07:06:30;;;;;;;19.67;3.35;;;10.70;99.90;;;;;;5090655;28;20024;-75
2023/03/17 07:08:56;;;;;;;11.98;2.78;;;10.80;99.90;;;;;;5090111;28;20035;-75
2023/03/17 07:11:22;;;;;;;19.40;3.63;;;10.80;99.90;;;;;;5090724;28;20038;-75
2023/03/17 07:13:49;;;;;;;19.10;3.70;;;10.80;99.90;;;;;;5090245;28;20369;-75
2023/03/17 07:16:18;;;;;;;14.63;3.00;;;10.80;99.90;;;;;;5090215;28;20039;-74
2023/03/17 07:18:44;;;;;;;18.33;3.03;;;10.90;99.90;;;;;;5090791;28;20085;-75
2023/03/17 07:21:09;;;;;;;12.90;3.08;;;11.00;99.90;;;;;;5089925;28;20448;-75
2023/03/17 07:23:36;;;;;;;14.82;2.90;;;11.00;99.90;;;;;;5090180;28;20107;-75
2023/03/17 07:26:02;;;;;;;19.63;4.15;;;11.10;99.90;;;;;;5089878;28;20079;-76
2023/03/17 07:28:28;;;;;;;17.17;3.33;;;11.20;99.90;;;;;;5088582;28;20043;-75
2023/03/17 07:30:55;;;;;;;16.85;3.20;;;11.30;99.90;;;;;;5089956;28;20486;-78
2023/03/17 07:33:20;;;;;;;21.20;3.28;;;11.50;99.90;;;;;;5090571;28;20064;-74
2023/03/17 07:35:47;;;;;;;16.02;3.50;;;11.60;99.90;;;;;;5089907;28;20473;-74
2023/03/17 07:38:15;;;;;;;18.70;4.43;;;11.80;99.90;;;;;;5089772;28;20596;-75
2023/03/17 07:40:42;;;;;;;18.30;3.42;;;11.90;99.90;;;;;;5090514;28;20059;-75
2023/03/17 07:43:09;;;;;;;18.00;3.60;;;12.10;99.90;;;;;;5089669;28;20028;-73
2023/03/17 07:45:34;;;;;;;16.13;3.17;;;12.20;99.90;;;;;;5090715;28;20036;-74
2023/03/17 07:48:05;;;;;;;18.13;3.00;;;12.30;99.90;;;;;;5089894;28;20039;-74
2023/03/17 07:50:32;;;;;;;14.82;3.10;;;12.40;99.90;;;;;;5090046;28;20036;-74
2023/03/17 07:52:58;;;;;;;15.10;3.55;;;12.50;99.90;;;;;;5089540;28;20046;-79
2023/03/17 07:55:23;;;;;;;16.67;3.10;;;12.40;99.90;;;;;;5090551;28;20454;-75
2023/03/17 07:57:49;;;;;;;13.30;2.63;;;12.40;99.90;;;;;;5090202;28;20031;-75
2023/03/17 08:00:16;;;;;;;16.38;3.10;;;12.40;99.90;;;;;;5089570;28;20490;-76
2023/03/17 08:02:42;;;;;;;17.13;3.40;;;12.50;99.90;;;;;;5090036;28;20459;-75
2023/03/17 08:05:08;;;;;;;11.65;3.03;;;12.60;99.90;;;;;;5089255;28;20552;-75
2023/03/17 08:07:36;;;;;;;15.23;2.90;;;12.60;99.90;;;;;;5093258;28;20036;-74
2023/03/17 08:10:03;;;;;;;12.25;2.65;;;12.60;99.90;;;;;;5091416;28;20145;-75
2023/03/17 08:12:28;;;;;;;13.27;2.83;;;12.60;99.90;;;;;;5093271;28;20436;-75
2023/03/17 08:14:54;;;;;;;19.02;3.20;;;12.50;99.90;;;;;;5093182;28;20035;-78
2023/03/17 08:17:20;;;;;;;16.55;3.42;;;12.40;99.90;;;;;;5093297;28;20047;-75
2023/03/17 08:19:46;;;;;;;16.13;3.63;;;12.30;99.90;;;;;;5093353;28;20043;-75
2023/03/17 08:22:12;;;;;;;21.95;3.95;;;12.20;99.90;;;;;;5093116;28;20431;-75
2023/03/17 08:24:39;;;;;;;18.40;3.92;;;12.10;99.90;;;;;;5092958;28;20324;-75
2023/03/17 08:27:06;;;;;;;19.25;3.70;;;12.00;99.90;;;;;;5092752;28;20044;-74
2023/03/17 08:29:32;;;;;;;20.95;3.80;;;12.00;99.90;;;;;;5093349;28;20077;-74
2023/03/17 08:31:58;;;;;;;16.45;3.55;;;11.90;99.90;;;;;;5092965;28;20473;-78
2023/03/17 08:34:25;;;;;;;20.27;4.10;;;11.70;99.90;;;;;;5093108;28;20114;-74
2023/03/17 08:36:51;;;;;;;15.40;4.05;;;11.70;99.90;;;;;;5092962;28;20040;-74
2023/03/17 08:39:18;;;;;;;18.73;3.42;;;11.70;99.90;;;;;;5092349;28;20652;-75
2023/03/17 08:41:44;;;;;;;15.48;3.20;;;11.60;99.90;;;;;;5093064;28;20111;-75
2023/03/17 08:44:11;;;;;;;16.48;3.35;;;11.60;99.90;;;;;;5092236;28;20036;-75
2023/03/17 08:46:39;;;;;;;19.77;2.80;;;11.60;99.90;;;;;;5092997;28;20427;-74
2023/03/17 08:49:04;;;;;;;21.00;3.85;;;11.60;99.90;;;;;;5092016;28;20028;-76
2023/03/17 08:51:33;;;;;;;18.48;3.63;;;11.70;99.90;;;;;;5092639;28;20046;-74
2023/03/17 08:53:59;;;;;;;18.83;4.20;;;11.80;99.90;;;;;;5092163;28;20024;-78
2023/03/17 08:56:25;;;;;;;21.45;3.75;;;11.80;99.90;;;;;;5092767;28;20477;-74
2023/03/17 08:58:51;;;;;;;19.73;3.58;;;11.90;99.90;;;;;;5092777;28;20459;-74
2023/03/17 09:01:19;;;;;;;20.05;3.55;;;12.00;99.90;;;;;;5090621;28;20036;-74
2023/03/17 09:03:46;;;;;;;15.25;3.10;;;12.10;99.90;;;;;;5092671;28;20539;-75
2023/03/17 09:06:12;;;;;;;23.40;3.67;;;12.10;99.90;;;;;;5091946;28;20506;-75
2023/03/17 09:08:43;;;;;;;18.58;3.08;;;12.20;99.90;;;;;;5092496;28;20160;-75
2023/03/17 09:11:19;;;;;;;14.68;3.05;;;12.30;99.90;;;;;;5091878;28;20139;-73
2023/03/17 09:13:46;;;;;;;16.90;3.30;;;12.30;99.90;;;;;;5091981;28;20360;-74
2023/03/17 09:16:13;;;;;;;24.10;3.35;;;12.30;99.90;;;;;;5091729;28;20017;-75
2023/03/17 09:18:39;;;;;;;15.65;3.08;;;12.30;99.90;;;;;;5093324;28;20032;-75
2023/03/17 09:21:06;;;;;;;16.58;2.95;;;12.40;99.90;;;;;;5094231;28;20046;-75
2023/03/17 09:23:32;;;;;;;17.60;2.88;;;12.40;99.90;;;;;;5092087;28;20031;-75
2023/03/17 09:25:58;;;;;;;16.08;2.60;;;12.40;99.90;;;;;;5092082;28;20402;-74
2023/03/17 09:28:24;;;;;;;18.17;3.50;;;12.50;99.90;;;;;;5091867;28;20044;-75
2023/03/17 09:30:51;;;;;;;20.42;3.42;;;12.60;99.90;;;;;;5092226;28;20103;-75
2023/03/17 09:33:17;;;;;;;11.68;2.42;;;12.60;99.90;;;;;;5091758;28;20024;-75
2023/03/17 09:35:43;;;;;;;11.18;2.33;;;12.60;99.90;;;;;;5092114;28;20024;-75
2023/03/17 09:38:09;;;;;;;20.80;3.17;;;12.60;99.90;;;;;;5089902;28;20024;-76
2023/03/17 09:41:10;;;;;;;14.07;2.92;;;12.70;99.90;;;;;;5092076;28;20071;-75
2023/03/17 09:43:57;;;;;;;13.25;3.28;;;12.70;99.90;;;;;;5091927;28;20342;-75
2023/03/17 09:46:31;;;;;;;20.20;3.42;;;12.70;99.90;;;;;;5091800;28;20028;-75
2023/03/17 09:49:47;;;;;;;14.10;3.35;;;12.80;99.90;;;;;;5090529;28;20477;-76
2023/03/17 09:52:17;;;;;;;16.20;3.10;;;12.70;99.90;;;;;;5088516;28;20028;-75
2023/03/17 09:54:45;;;;;;;17.52;3.42;;;12.80;99.90;;;;;;5091992;28;20244;-75
2023/03/17 09:57:31;;;;;;;15.10;3.55;;;12.80;99.90;;;;;;5090901;28;20039;-75
2023/03/17 10:00:05;;;;;;;19.80;3.10;;;12.80;99.90;;;;;;5091883;28;20032;-74
2023/03/17 10:02:33;;;;;;;17.08;3.38;;;12.90;99.90;;;;;;5091814;28;20024;-75
2023/03/17 10:05:18;;;;;;;19.40;3.50;;;12.80;99.90;;;;;;5092684;28;20023;-75
2023/03/17 10:07:48;;;;;;;19.25;3.60;;;12.90;99.90;;;;;;5109230;28;20023;-75
2023/03/17 10:10:21;;;;;;;20.33;3.22;;;12.80;99.90;;;;;;5111338;28;20038;-75
2023/03/17 10:13:11;;;;;;;15.40;3.10;;;12.80;99.90;;;;;;5111926;28;20024;-74
2023/03/17 10:15:51;;;;;;;22.58;3.58;;;12.80;99.90;;;;;;5111499;28;20452;-75
2023/03/17 10:18:21;;;;;;;22.40;3.30;;;12.70;99.90;;;;;;5110820;28;20367;-75
2023/03/17 10:20:58;;;;;;;16.67;3.42;;;12.70;99.90;;;;;;5111330;28;20184;-74
2023/03/17 10:23:28;;;;;;;14.93;3.20;;;12.60;99.90;;;;;;5111172;28;20096;-75
2023/03/17 10:25:58;;;;;;;20.40;3.88;;;12.60;99.90;;;;;;5111689;28;20184;-75
2023/03/17 10:28:31;;;;;;;16.83;3.70;;;12.50;99.90;;;;;;5110563;28;20674;-75
2023/03/17 10:31:00;;;;;;;;;;;12.50;99.90;;;;;;5103898;28;20032;-75
2023/03/17 10:33:26;;;;;;;15.88;3.25;;;12.40;99.90;;;;;;5090750;28;20359;-76
2023/03/17 10:35:52;;;;;;;16.35;3.30;;;12.40;99.90;;;;;;5091483;28;20022;-75
2023/03/17 10:38:20;;;;;;;14.93;2.97;;;12.40;99.90;;;;;;5090581;28;20028;-75
2023/03/17 10:40:58;;;;;;;11.48;2.67;;;12.30;99.90;;;;;;5091252;28;20127;-75
2023/03/17 10:43:28;;;;;;;15.02;2.85;;;12.20;99.90;;;;;;5090774;28;20325;-76
2023/03/17 10:46:06;;;;;;;15.18;3.10;;;12.10;99.90;;;;;;5091252;28;20359;-76
2023/03/17 10:48:37;;;;;;;14.65;3.00;;;12.10;99.90;;;;;;5091408;28;20020;-76
2023/03/17 10:51:10;;;;;;;17.00;3.10;;;12.00;99.90;;;;;;5091390;28;20126;-76
2023/03/17 10:53:42;;;;;;;14.35;3.00;;;11.90;99.90;;;;;;5091261;28;20115;-76
2023/03/17 10:56:09;;;;;;;13.95;3.10;;;11.90;99.90;;;;;;5090802;28;20024;-78
2023/03/17 10:58:50;;;;;;;12.93;2.70;;;11.90;99.90;;;;;;5089261;28;20078;-76
2023/03/17 11:01:52;;;;;;;12.65;2.40;;;11.80;99.90;;;;;;5090464;28;20054;-76
2023/03/17 11:04:37;;;;;;;18.43;3.07;;;11.80;99.90;;;;;;5090576;28;20028;-76
2023/03/17 11:07:17;;;;;;;17.42;3.25;;;11.80;99.90;;;;;;5090914;28;20027;-75
2023/03/17 11:09:49;;;;;;;12.25;3.03;;;11.90;99.90;;;;;;5090677;28;20051;-75
2023/03/17 11:12:28;;;;;;;11.80;2.50;;;11.90;99.90;;;;;;5088484;28;20089;-75
2023/03/17 11:14:58;;;;;;;13.23;3.28;;;11.90;99.90;;;;;;5089420;28;20378;-75
2023/03/17 11:17:42;;;;;;;12.25;3.30;;;11.90;99.90;;;;;;5089848;28;20027;-75
2023/03/17 11:20:26;;;;;;;11.73;2.47;;;12.00;99.90;;;;;;5089924;28;20075;-78
2023/03/17 11:23:09;;;;;;;13.75;2.85;;;12.00;99.90;;;;;;5090297;28;20043;-75
2023/03/17 11:25:41;;;;;;;13.70;2.70;;;12.00;99.90;;;;;;5090679;28;20028;-75
2023/03/17 11:28:17;;;;;;;18.35;3.65;;;12.10;99.90;;;;;;5089912;28;20051;-75
2023/03/17 11:31:00;;;;;;;11.50;2.65;;;12.10;99.90;;;;;;5090715;28;20453;-75
2023/03/17 11:33:41;;;;;;;13.65;2.80;;;12.10;99.90;;;;;;5089931;28;20370;-75
2023/03/17 11:36:42;;;;;;;11.82;2.42;;;12.20;99.90;;;;;;5090982;28;20367;-75
2023/03/17 11:39:15;;;;;;;14.05;2.67;;;12.10;99.90;;;;;;5086412;28;20056;-75
2023/03/17 11:42:04;;;;;;;13.60;2.90;;;12.20;99.90;;;;;;5092925;28;20031;-76
2023/03/17 11:45:02;;;;;;;17.88;3.28;;;12.30;99.90;;;;;;5095279;28;20024;-74
2023/03/17 11:47:45;;;;;;;13.20;2.92;;;12.20;99.90;;;;;;5096352;28;20024;-74
2023/03/17 11:50:22;;;;;;;13.93;2.78;;;12.30;99.90;;;;;;5095876;28;20032;-78
2023/03/17 11:53:10;;;;;;;17.42;2.95;;;12.30;99.90;;;;;;5095354;28;20024;-75
2023/03/17 11:55:54;;;;;;;17.15;3.17;;;12.30;99.90;;;;;;5095050;28;20032;-75
2023/03/17 11:58:30;;;;;;;13.68;3.03;;;12.30;99.90;;;;;;5109990;28;20024;-76
2023/03/17 12:00:59;;;;;;;9.93;2.22;;;12.30;99.90;;;;;;5095128;28;20035;-75
2023/03/17 12:03:30;;;;;;;8.77;2.08;;;12.30;99.90;;;;;;5094580;28;20032;-76
2023/03/17 12:06:04;;;;;;;11.13;2.60;;;12.30;99.90;;;;;;5094900;28;20016;-74
2023/03/17 12:08:45;;;;;;;11.20;2.45;;;12.30;99.90;;;;;;5094596;28;20045;-76
2023/03/17 12:11:24;;;;;;;11.40;2.45;;;12.40;99.90;;;;;;5094658;28;20067;-79
2023/03/17 12:13:50;;;;;;;6.85;2.03;;;12.30;99.90;;;;;;5094962;28;20024;-76
2023/03/17 12:16:36;;;;;;;8.90;2.22;;;12.40;99.90;;;;;;5093477;28;20028;-76
2023/03/17 12:19:43;;;;;;;14.38;2.50;;;12.50;99.90;;;;;;5094111;28;20107;-76
2023/03/17 12:22:18;;;;;;;11.18;3.35;;;12.50;99.90;;;;;;5083139;28;20130;-75
2023/03/17 12:24:56;;;;;;;12.60;2.42;;;12.50;99.90;;;;;;5094203;28;20348;-75
2023/03/17 12:27:31;;;;;;;8.68;3.03;;;12.60;99.90;;;;;;5094302;28;20040;-75
2023/03/17 12:30:02;;;;;;;16.55;3.08;;;12.60;99.90;;;;;;5094891;28;20047;-75
2023/03/17 12:32:43;;;;;;;10.82;2.80;;;12.60;99.90;;;;;;5093659;28;20025;-75
2023/03/17 12:35:17;;;;;;;15.73;2.80;;;12.60;99.90;;;;;;5094620;28;20107;-75
2023/03/17 12:37:43;;;;;;;9.85;2.30;;;12.60;99.90;;;;;;5094453;28;20115;-75
2023/03/17 12:40:14;;;;;;;15.35;3.00;;;12.60;99.90;;;;;;5094441;28;20115;-75
2023/03/17 12:43:28;;;;;;;10.80;2.70;;;12.70;99.90;;;;;;5093906;28;20023;-75
2023/03/17 12:46:11;;;;;;;17.23;3.58;;;12.80;99.90;;;;;;5082132;28;20570;-74
2023/03/17 12:49:07;;;;;;;15.52;3.53;;;12.80;99.90;;;;;;5102969;28;20026;-75
2023/03/17 12:52:09;;;;;;;14.57;3.95;;;12.90;99.90;;;;;;5101142;28;20016;-76
2023/03/17 12:54:38;;;;;;;14.18;3.15;;;12.80;99.90;;;;;;5107798;28;20123;-75